Time;durP1;ratioP1;P1;durP2;ratioP2;P2;SDS_P1;SDS_P2;PMS_P1;PMS_P2;Temp;Humidity;BMP_temperature;BMP_pressure;BME280_temperature;BME280_humidity;BME280_pressure;Samples;Min_cycle;Max_cycle;Signal;HPM_P1;HPM_P2
2022/11/08 00:18:23;;;;;;;14.80;4.50;;;;;;;;;;21088136;28;20492;-62
2022/11/08 00:28:25;;;;;;;10.45;4.30;;;;;;;;;;21087376;28;20131;-64
2022/11/08 00:38:27;;;;;;;9.88;4.50;;;;;;;;;;21086995;28;20097;-62
2022/11/08 00:48:29;;;;;;;11.80;4.53;;;;;;;;;;21085073;28;20056;-66
2022/11/08 00:58:32;;;;;;;9.18;4.65;;;;;;;;;;21084335;28;20094;-63
2022/11/08 01:08:34;;;;;;;8.43;4.60;;;;;;;;;;21084557;28;20067;-64
2022/11/08 01:18:36;;;;;;;8.48;4.15;;;;;;;;;;21082806;28;20069;-67
2022/11/08 01:28:39;;;;;;;6.70;4.43;;;;;;;;;;21082253;28;20048;-64
2022/11/08 01:38:41;;;;;;;11.57;5.32;;;;;;;;;;21082220;28;20070;-67
2022/11/08 01:49:03;;;;;;;11.05;5.05;;;;;;;;;;21080618;28;20056;-66
2022/11/08 01:59:07;;;;;;;6.70;4.70;;;;;;;;;;21080009;28;20051;-66
2022/11/08 02:09:11;;;;;;;9.05;4.57;;;;;;;;;;21080215;28;20480;-66
2022/11/08 02:19:17;;;;;;;11.25;5.40;;;;;;;;;;21079294;28;20040;-67
2022/11/08 02:29:23;;;;;;;8.80;5.40;;;;;;;;;;21082675;28;20054;-67
2022/11/08 02:39:28;;;;;;;11.57;5.75;;;;;;;;;;21096647;28;20055;-66
2022/11/08 02:49:31;;;;;;;13.00;5.65;;;;;;;;;;21094577;28;20052;-67
2022/11/08 02:59:34;;;;;;;11.10;5.45;;;;;;;;;;21093841;28;20052;-63
2022/11/08 03:09:37;;;;;;;10.63;6.25;;;;;;;;;;21093165;28;20044;-64
2022/11/08 03:19:39;;;;;;;13.13;5.50;;;;;;;;;;21092365;28;20134;-68
2022/11/08 03:29:42;;;;;;;8.75;4.53;;;;;;;;;;21091678;28;20101;-67
2022/11/08 03:39:45;;;;;;;10.00;4.63;;;;;;;;;;21091143;28;20056;-63
2022/11/08 03:49:47;;;;;;;9.48;4.43;;;;;;;;;;21090268;28;20142;-66
2022/11/08 03:59:49;;;;;;;9.55;4.47;;;;;;;;;;21089660;28;20051;-67
2022/11/08 04:09:52;;;;;;;11.25;4.50;;;;;;;;;;21089043;28;20079;-67
2022/11/08 04:30:26;;;;;;;9.85;4.53;;;;;;;;;;20747593;28;20157;-68
2022/11/08 04:40:30;;;;;;;9.45;4.35;;;;;;;;;;20747026;28;20038;-67
2022/11/08 04:50:36;;;;;;;9.63;4.05;;;;;;;;;;20744824;28;20050;-65
2022/11/08 05:00:39;;;;;;;11.25;3.80;;;;;;;;;;20835634;28;20123;-68
2022/11/08 05:10:42;;;;;;;10.27;4.45;;;;;;;;;;21084935;28;20523;-67
2022/11/08 05:31:07;;;;;;;10.68;3.97;;;;;;;;;;21082628;28;20048;-68
2022/11/08 05:41:14;;;;;;;7.63;4.03;;;;;;;;;;21081616;28;20075;-69
2022/11/08 05:51:18;;;;;;;8.68;4.25;;;;;;;;;;21080545;28;20059;-68
2022/11/08 06:01:20;;;;;;;9.85;3.75;;;;;;;;;;21081166;28;20078;-65
2022/11/08 06:11:24;;;;;;;9.98;3.88;;;;;;;;;;21079984;28;20052;-66
2022/11/08 06:21:26;;;;;;;7.00;3.83;;;;;;;;;;21080034;28;20121;-66
2022/11/08 06:31:28;;;;;;;6.80;4.00;;;;;;;;;;21078948;28;20048;-67
2022/11/08 06:41:31;;;;;;;8.00;3.72;;;;;;;;;;21078985;28;20073;-68
2022/11/08 06:51:34;;;;;;;9.77;3.55;;;;;;;;;;21077489;28;20561;-68
2022/11/08 07:01:36;;;;;;;9.52;4.25;;;;;;;;;;21078349;28;20048;-69
2022/11/08 07:11:38;;;;;;;6.15;3.45;;;;;;;;;;21077787;28;20442;-69
2022/11/08 07:21:40;;;;;;;11.25;3.65;;;;;;;;;;21089417;28;20129;-66
2022/11/08 07:31:42;;;;;;;6.38;3.10;;;;;;;;;;21091784;28;20105;-68
2022/11/08 07:41:44;;;;;;;7.95;3.22;;;;;;;;;;21091611;28;20074;-69
2022/11/08 07:51:46;;;;;;;10.60;3.25;;;;;;;;;;21090619;28;20051;-69
2022/11/08 08:01:48;;;;;;;9.18;3.33;;;;;;;;;;21089404;28;20127;-66
2022/11/08 08:11:51;;;;;;;8.55;3.85;;;;;;;;;;21088690;28;20434;-68
2022/11/08 08:21:53;;;;;;;7.20;3.40;;;;;;;;;;21088594;28;20556;-63
2022/11/08 08:31:55;;;;;;;14.50;3.60;;;;;;;;;;21086215;28;20079;-63
2022/11/08 08:41:57;;;;;;;10.90;3.58;;;;;;;;;;21086093;28;20087;-61
2022/11/08 08:51:59;;;;;;;13.63;4.35;;;;;;;;;;21084344;28;20052;-67
2022/11/08 09:02:02;;;;;;;8.50;3.40;;;;;;;;;;21084981;28;20495;-64
2022/11/08 09:12:05;;;;;;;11.30;3.45;;;;;;;;;;21084295;28;20139;-66
2022/11/08 09:22:07;;;;;;;10.60;3.38;;;;;;;;;;21080890;28;20040;-71
2022/11/08 09:32:10;;;;;;;11.75;3.53;;;;;;;;;;21080239;28;20144;-68
2022/11/08 09:42:30;;;;;;;9.95;3.40;;;;;;;;;;21083121;28;20050;-69
2022/11/08 09:52:34;;;;;;;7.28;3.17;;;;;;;;;;21080647;28;20196;-71
2022/11/08 10:02:36;;;;;;;9.35;2.97;;;;;;;;;;21078801;28;20396;-70
2022/11/08 10:12:41;;;;;;;9.85;3.50;;;;;;;;;;21076388;28;20040;-65
2022/11/08 10:22:58;;;;;;;4.75;2.20;;;;;;;;;;21077190;28;20369;-72
2022/11/08 10:33:02;;;;;;;12.70;6.60;;;;;;;;;;21075519;28;20056;-68
2022/11/08 10:43:09;;;;;;;15.60;4.78;;;;;;;;;;21076861;28;20036;-71
2022/11/08 10:53:15;;;;;;;14.23;4.03;;;;;;;;;;21084921;28;20407;-66
2022/11/08 11:03:27;;;;;;;12.70;4.70;;;;;;;;;;21091459;28;20051;-69
2022/11/08 11:13:29;;;;;;;17.60;5.00;;;;;;;;;;21089341;28;20076;-67
2022/11/08 11:23:37;;;;;;;14.77;3.97;;;;;;;;;;21088638;28;20553;-68
2022/11/08 11:33:44;;;;;;;12.05;4.03;;;;;;;;;;21091174;28;20147;-72
2022/11/08 11:43:52;;;;;;;10.05;4.03;;;;;;;;;;21090059;28;20044;-65
2022/11/08 11:53:54;;;;;;;15.07;5.33;;;;;;;;;;21086119;28;20047;-61
2022/11/08 12:04:09;;;;;;;12.88;5.43;;;;;;;;;;21085684;28;20044;-65
2022/11/08 12:14:32;;;;;;;9.05;5.53;;;;;;;;;;21085858;28;20052;-69
2022/11/08 12:24:48;;;;;;;16.08;5.03;;;;;;;;;;21086768;28;20044;-71
2022/11/08 12:34:56;;;;;;;15.00;5.25;;;;;;;;;;21086905;28;20499;-69
2022/11/08 12:44:58;;;;;;;11.30;2.58;;;;;;;;;;21084347;28;20406;-63
2022/11/08 12:55:01;;;;;;;6.72;2.65;;;;;;;;;;21082038;28;20052;-67
2022/11/08 13:05:21;;;;;;;5.55;3.53;;;;;;;;;;21082258;28;20090;-61
2022/11/08 13:15:24;;;;;;;30.88;17.42;;;;;;;;;;21083520;28;20054;-62
2022/11/08 13:25:25;;;;;;;18.25;7.15;;;;;;;;;;21084326;28;20519;-62
2022/11/08 13:35:42;;;;;;;12.68;6.03;;;;;;;;;;21083158;28;20053;-63
2022/11/08 13:45:44;;;;;;;14.13;6.10;;;;;;;;;;21082379;28;20060;-60
2022/11/08 13:55:51;;;;;;;11.60;6.72;;;;;;;;;;21081527;28;20044;-61
2022/11/08 14:05:54;;;;;;;16.10;7.28;;;;;;;;;;21079705;28;20043;-61
2022/11/08 14:15:58;;;;;;;10.63;6.05;;;;;;;;;;21079654;28;20048;-61
2022/11/08 14:26:01;;;;;;;10.23;5.65;;;;;;;;;;21077528;28;20087;-62
2022/11/08 14:36:03;;;;;;;10.95;4.78;;;;;;;;;;21079737;28;20139;-62
2022/11/08 14:46:14;;;;;;;18.20;8.35;;;;;;;;;;21077968;28;20144;-62
2022/11/08 14:56:17;;;;;;;10.95;5.53;;;;;;;;;;21077956;28;20054;-61
2022/11/08 15:06:20;;;;;;;24.55;13.30;;;;;;;;;;21077994;28;20048;-61
2022/11/08 15:16:22;;;;;;;11.35;4.18;;;;;;;;;;21078053;28;20048;-60
2022/11/08 15:26:24;;;;;;;5.35;2.22;;;;;;;;;;21077905;28;20105;-62
2022/11/08 15:36:31;;;;;;;7.03;3.17;;;;;;;;;;21079041;28;20044;-61
2022/11/08 15:46:37;;;;;;;5.35;1.88;;;;;;;;;;21090603;28;20424;-61
2022/11/08 15:56:40;;;;;;;4.50;2.13;;;;;;;;;;21090534;28;20040;-60
2022/11/08 16:06:41;;;;;;;4.18;1.77;;;;;;;;;;21090768;28;20503;-61
2022/11/08 16:16:44;;;;;;;4.85;1.58;;;;;;;;;;21088413;28;20049;-63
2022/11/08 16:26:46;;;;;;;4.85;1.60;;;;;;;;;;21088050;28;20051;-61
2022/11/08 16:36:49;;;;;;;5.60;1.48;;;;;;;;;;21087656;28;20515;-61
2022/11/08 16:46:52;;;;;;;4.18;2.17;;;;;;;;;;21084324;28;20135;-65
2022/11/08 16:56:55;;;;;;;9.95;1.88;;;;;;;;;;21084860;28;20090;-62
2022/11/08 17:06:57;;;;;;;2.80;1.50;;;;;;;;;;21086447;28;20089;-61
2022/11/08 17:17:00;;;;;;;3.90;1.08;;;;;;;;;;21084353;28;20532;-62
2022/11/08 17:27:02;;;;;;;5.03;1.77;;;;;;;;;;21083438;28;20484;-61
2022/11/08 17:37:04;;;;;;;5.13;1.10;;;;;;;;;;21082065;28;20127;-62
2022/11/08 17:47:06;;;;;;;5.03;3.33;;;;;;;;;;21081286;28;20055;-61
2022/11/08 17:57:09;;;;;;;3.38;1.30;;;;;;;;;;21080247;28;20045;-62
2022/11/08 18:07:12;;;;;;;2.95;1.60;;;;;;;;;;21080012;28;20052;-62
2022/11/08 18:17:14;;;;;;;4.53;1.67;;;;;;;;;;21079548;28;20059;-62
2022/11/08 18:27:16;;;;;;;4.68;1.88;;;;;;;;;;21079143;28;20055;-62
2022/11/08 18:37:18;;;;;;;5.38;2.35;;;;;;;;;;21078739;28;20044;-63
2022/11/08 18:47:20;;;;;;;4.32;2.10;;;;;;;;;;21078301;28;20087;-62
2022/11/08 18:57:22;;;;;;;4.50;2.20;;;;;;;;;;21078008;28;20499;-62
2022/11/08 19:07:24;;;;;;;6.72;2.60;;;;;;;;;;21078182;28;20407;-62
2022/11/08 19:17:26;;;;;;;8.55;3.17;;;;;;;;;;21090847;28;20477;-63
2022/11/08 19:27:28;;;;;;;6.40;3.60;;;;;;;;;;21092997;28;20048;-62
2022/11/08 19:37:30;;;;;;;8.38;4.75;;;;;;;;;;21092210;28;20040;-62
2022/11/08 19:47:32;;;;;;;8.02;4.43;;;;;;;;;;21073086;28;20055;-62
2022/11/08 19:57:34;;;;;;;6.53;4.45;;;;;;;;;;21092235;28;20044;-64
2022/11/08 20:07:36;;;;;;;8.23;3.60;;;;;;;;;;21090523;28;20107;-64
2022/11/08 20:17:38;;;;;;;8.88;3.67;;;;;;;;;;21090440;28;20491;-63
2022/11/08 20:27:39;;;;;;;10.15;4.80;;;;;;;;;;21087674;28;20052;-62
2022/11/08 20:37:41;;;;;;;12.13;6.40;;;;;;;;;;21086205;28;20063;-62
2022/11/08 20:47:43;;;;;;;13.25;6.00;;;;;;;;;;21084849;28;20090;-63
2022/11/08 20:57:45;;;;;;;11.73;5.35;;;;;;;;;;21084086;28;20113;-62
2022/11/08 21:07:48;;;;;;;12.60;5.93;;;;;;;;;;21083488;28;20044;-61
2022/11/08 21:17:50;;;;;;;4.80;2.40;;;;;;;;;;21083354;28;20484;-62
2022/11/08 21:27:52;;;;;;;5.82;2.47;;;;;;;;;;21083563;28;20087;-61
2022/11/08 21:37:54;;;;;;;2.95;1.67;;;;;;;;;;21082230;28;20495;-62
2022/11/08 21:47:57;;;;;;;5.40;2.15;;;;;;;;;;21081669;28;20052;-62
2022/11/08 21:58:00;;;;;;;3.17;2.00;;;;;;;;;;21081453;28;20404;-61
2022/11/08 22:08:02;;;;;;;5.03;1.98;;;;;;;;;;21080623;28;20476;-62
2022/11/08 22:18:04;;;;;;;5.03;2.08;;;;;;;;;;21081012;28;20048;-62
2022/11/08 22:28:06;;;;;;;4.28;2.30;;;;;;;;;;21080391;28;20052;-62
2022/11/08 22:38:08;;;;;;;5.93;2.30;;;;;;;;;;21079538;28;20488;-62
2022/11/08 22:48:10;;;;;;;4.55;2.42;;;;;;;;;;21083726;28;20052;-62
2022/11/08 22:58:12;;;;;;;6.28;3.70;;;;;;;;;;21095153;28;20097;-62
2022/11/08 23:08:14;;;;;;;8.48;4.30;;;;;;;;;;21077321;28;20484;-62
2022/11/08 23:18:17;;;;;;;9.88;5.90;;;;;;;;;;21093283;28;20059;-62
2022/11/08 23:38:40;;;;;;;13.95;8.20;;;;;;;;;;21091893;28;20071;-62
2022/11/08 23:48:42;;;;;;;13.88;6.78;;;;;;;;;;21089732;28;20136;-62
2022/11/08 23:58:43;;;;;;;15.68;7.78;;;;;;;;;;21089649;28;20551;-61
